Etusivu
METAR-TAF:

METAR-TAF

Lentoasemat :

Nebraska City Municipal Airport

Nebraska City, Nebraska, Yhdysvallat

Leveyspiiri: 40-36N, Pituuspiiri: 095-51W, korkeus merenpinnasta: 354 m

Tämänhetkinen sää

Tämä raportti tehtiin 10 minuuttia sitten, kello 18.15 UTC
Tuuli 9 kn lännestä/lounaasta
Lämpötila 3°C
Kosteus 48%
Ilmanpaine 1015 hPa
Näkyvyys: 16.1 km
selkeää

METAR: KAFK 131815Z AUTO 25009KT 10SM CLR 03/M07 A2997 RMK AO2 T00271068

Aika: 12:25 (18:25 UTC)


TAF: puuttuu

Säähavainnot ja -ennusteet yli 4000 lentoasemalta (METAR- ja TAF-raportit).

Käytössä olevat sääasemat on merkitty karttaan keltaisilla ja punaisilla pisteillä.

Aseta hiiri pisteen päälle nähdäksesi sääaseman nimen.

Klikkaa sitten nähdäksesi säähavainnot ja -ennusteet.

Kartan vaihtaminen: klikkaa mustalla rastilla varustettuja vihreitä pisteitä, niin voit zoomata sisään; viivalla varustettua vihreää pistettä, niin voit zoomata ulos tai vihreitä nuolia, niin pääset viereisille kartoille.


METAR-TAF: